Fort Independence — WBH3169 — position and weather

sailwx.info

Track history (hours):
 
Tides and Currents Weather Stations Pressure Air Temp Water Temp Dewpoint Dewpoint Depression Visibility Wind Speed Wind Dir Waves Ship Positions

Fort Independence

Owner: Boston Harbor Cruises, BOSTON, MA. More information available from US FCC via Universal Licensing System and Coast Guard Vessel Documentation Center.

Last reported at 2017-Oct-27 19:56 UTC. Time now 2017-Nov-19 01:27 UTC.
Position N 42°22' W 071°02'.
Warning: this ship's position is 22 days out of date.

Type: Passenger vessel. MMSI: 367177610.

Date/timePositionNaut miles runAvg speedWind from/ knotsBaromVisibWave heightAir tempDewpointWater temp
2017-Oct-27 19:56N 42°22' W 071°02'1 1.7
2017-Oct-27 19:31N 42°22' W 071°03'0 0.0
2017-Oct-27 19:00N 42°22' W 071°03'0 0.4
2017-Oct-27 18:30N 42°22' W 071°03'2 3.5
2017-Oct-27 18:00N 42°21' W 071°01'1 2.4
2017-Oct-27 17:30N 42°20' W 070°60'3 5.8
2017-Oct-27 17:00N 42°22' W 071°03'0 0.9
2017-Oct-27 16:30N 42°22' W 071°03'3 5.2
2017-Oct-27 16:00N 42°21' W 070°60'0 0.8
2017-Oct-27 15:30N 42°20' W 070°60'3 5.3
2017-Oct-27 15:01N 42°22' W 071°03'0 0.0
2017-Oct-25 18:41N 42°22' W 071°03'0 1.5
2017-Oct-25 18:30N 42°22' W 071°03'2 3.3
2017-Oct-25 18:00N 42°21' W 071°01'1 2.1
2017-Oct-25 17:30N 42°20' W 070°60'3 5.6
2017-Oct-25 17:00N 42°22' W 071°03'0 0.5
2017-Oct-25 16:30N 42°22' W 071°03'2 3.1
2017-Oct-25 16:00N 42°21' W 071°01'1 2.1
2017-Oct-25 15:30N 42°20' W 070°60'3 5.1
2017-Oct-25 14:59N 42°22' W 071°03'0 0.0
2017-Oct-25 14:25N 42°22' W 071°03'0 0.0
2017-Oct-25 14:00N 42°22' W 071°03'0 0.0
2017-Oct-24 18:43N 42°22' W 071°03'0 1.3
2017-Oct-24 18:30N 42°22' W 071°03'1 2.0
2017-Oct-24 18:01N 42°21' W 071°02'2 3.3
2017-Oct-24 17:30N 42°20' W 070°60'3 5.3
2017-Oct-24 16:58N 42°22' W 071°03'0 0.6
2017-Oct-24 16:30N 42°22' W 071°03'2 3.1
2017-Oct-24 16:01N 42°21' W 071°01'1 2.2
2017-Oct-24 15:30N 42°20' W 070°60'3 5.6
2017-Oct-24 15:00N 42°22' W 071°03'0 0.0
2017-Oct-24 14:30N 42°22' W 071°03'0 0.0
2017-Oct-23 18:36N 42°22' W 071°03'0 2.4
2017-Oct-23 18:30N 42°22' W 071°03'0 0.3
2017-Oct-23 18:00N 42°22' W 071°03'1 2.5
2017-Oct-23 17:28N 42°21' W 071°01'1 1.5
2017-Oct-23 16:38N 42°22' W 071°03'0 1.5
2017-Oct-23 16:30N 42°22' W 071°03'1 2.3
2017-Oct-23 15:59N 42°23' W 071°03'2 4.2
2017-Oct-23 15:28N 42°21' W 071°01'1 1.2
2017-Oct-23 14:23N 42°22' W 071°03'0 0.0
2017-Oct-23 14:00N 42°22' W 071°03'  
2017-Oct-19 19:11N 42°22' W 071°02'0 2.6
2017-Oct-19 19:00N 42°22' W 071°03'0 0.6
2017-Oct-19 18:30N 42°22' W 071°03'1 2.3
2017-Oct-19 18:00N 42°21' W 071°02'2 1.7
2017-Oct-19 16:37N 42°19' W 070°59'0 0.2
2017-Oct-19 16:30N 42°19' W 070°59'0 0.0
2017-Oct-19 16:00N 42°19' W 070°59'0 0.0
2017-Oct-19 15:30N 42°19' W 070°59'0 0.0
2017-Oct-19 15:00N 42°19' W 070°59'0 0.7
2017-Oct-19 14:30N 42°19' W 070°60'3 6.5
2017-Oct-19 14:00N 42°22' W 071°03'0 0.1
2017-Oct-19 13:30N 42°22' W 071°03'0 0.0
2017-Oct-18 19:14N 42°22' W 071°03'0 0.0
2017-Oct-18 19:00N 42°22' W 071°03'1 1.4
2017-Oct-18 18:31N 42°22' W 071°03'3 6.6
2017-Oct-18 18:00N 42°20' W 070°60'0 1.0
2017-Oct-18 17:31N 42°20' W 071°00'3 5.3
2017-Oct-18 17:00N 42°22' W 071°03'0 0.5
2017-Oct-18 16:30N 42°22' W 071°03'2 3.6
2017-Oct-18 16:00N 42°21' W 071°01'1 2.4
2017-Oct-18 15:30N 42°20' W 070°59'3 6.3
2017-Oct-18 15:00N 42°22' W 071°03'  
Track history (hours):
 
Tides and Currents Weather Stations Pressure Air Temp Water Temp Dewpoint Dewpoint Depression Visibility Wind Speed Wind Dir Waves Ship Positions

Fort Independence

Owner: Boston Harbor Cruises, BOSTON, MA. More information available from US FCC via Universal Licensing System and Coast Guard Vessel Documentation Center.

Last reported at 2017-Oct-27 19:56 UTC. Time now 2017-Nov-19 01:27 UTC.
Position N 42°22' W 071°02'.
Warning: this ship's position is 22 days out of date.

Type: Passenger vessel. MMSI: 367177610.

Date/timePositionNaut miles runAvg speedWind from/ knotsBaromVisibWave heightAir tempDewpointWater temp
2017-Oct-27 19:56N 42°22' W 071°02'1 1.7
2017-Oct-27 19:31N 42°22' W 071°03'0 0.0
2017-Oct-27 19:00N 42°22' W 071°03'0 0.4
2017-Oct-27 18:30N 42°22' W 071°03'2 3.5
2017-Oct-27 18:00N 42°21' W 071°01'1 2.4
2017-Oct-27 17:30N 42°20' W 070°60'3 5.8
2017-Oct-27 17:00N 42°22' W 071°03'0 0.9
2017-Oct-27 16:30N 42°22' W 071°03'3 5.2
2017-Oct-27 16:00N 42°21' W 070°60'0 0.8
2017-Oct-27 15:30N 42°20' W 070°60'3 5.3
2017-Oct-27 15:01N 42°22' W 071°03'0 0.0
2017-Oct-25 18:41N 42°22' W 071°03'0 1.5
2017-Oct-25 18:30N 42°22' W 071°03'2 3.3
2017-Oct-25 18:00N 42°21' W 071°01'1 2.1
2017-Oct-25 17:30N 42°20' W 070°60'3 5.6
2017-Oct-25 17:00N 42°22' W 071°03'0 0.5
2017-Oct-25 16:30N 42°22' W 071°03'2 3.1
2017-Oct-25 16:00N 42°21' W 071°01'1 2.1
2017-Oct-25 15:30N 42°20' W 070°60'3 5.1
2017-Oct-25 14:59N 42°22' W 071°03'0 0.0
2017-Oct-25 14:25N 42°22' W 071°03'0 0.0
2017-Oct-25 14:00N 42°22' W 071°03'0 0.0
2017-Oct-24 18:43N 42°22' W 071°03'0 1.3
2017-Oct-24 18:30N 42°22' W 071°03'1 2.0
2017-Oct-24 18:01N 42°21' W 071°02'2 3.3
2017-Oct-24 17:30N 42°20' W 070°60'3 5.3
2017-Oct-24 16:58N 42°22' W 071°03'0 0.6
2017-Oct-24 16:30N 42°22' W 071°03'2 3.1
2017-Oct-24 16:01N 42°21' W 071°01'1 2.2
2017-Oct-24 15:30N 42°20' W 070°60'3 5.6
2017-Oct-24 15:00N 42°22' W 071°03'0 0.0
2017-Oct-24 14:30N 42°22' W 071°03'0 0.0
2017-Oct-23 18:36N 42°22' W 071°03'0 2.4
2017-Oct-23 18:30N 42°22' W 071°03'0 0.3
2017-Oct-23 18:00N 42°22' W 071°03'1 2.5
2017-Oct-23 17:28N 42°21' W 071°01'1 1.5
2017-Oct-23 16:38N 42°22' W 071°03'0 1.5
2017-Oct-23 16:30N 42°22' W 071°03'1 2.3
2017-Oct-23 15:59N 42°23' W 071°03'2 4.2
2017-Oct-23 15:28N 42°21' W 071°01'1 1.2
2017-Oct-23 14:23N 42°22' W 071°03'0 0.0
2017-Oct-23 14:00N 42°22' W 071°03'  
2017-Oct-19 19:11N 42°22' W 071°02'0 2.6
2017-Oct-19 19:00N 42°22' W 071°03'0 0.6
2017-Oct-19 18:30N 42°22' W 071°03'1 2.3
2017-Oct-19 18:00N 42°21' W 071°02'2 1.7
2017-Oct-19 16:37N 42°19' W 070°59'0 0.2
2017-Oct-19 16:30N 42°19' W 070°59'0 0.0
2017-Oct-19 16:00N 42°19' W 070°59'0 0.0
2017-Oct-19 15:30N 42°19' W 070°59'0 0.0
2017-Oct-19 15:00N 42°19' W 070°59'0 0.7
2017-Oct-19 14:30N 42°19' W 070°60'3 6.5
2017-Oct-19 14:00N 42°22' W 071°03'0 0.1
2017-Oct-19 13:30N 42°22' W 071°03'0 0.0
2017-Oct-18 19:14N 42°22' W 071°03'0 0.0
2017-Oct-18 19:00N 42°22' W 071°03'1 1.4
2017-Oct-18 18:31N 42°22' W 071°03'3 6.6
2017-Oct-18 18:00N 42°20' W 070°60'0 1.0
2017-Oct-18 17:31N 42°20' W 071°00'3 5.3
2017-Oct-18 17:00N 42°22' W 071°03'0 0.5
2017-Oct-18 16:30N 42°22' W 071°03'2 3.6
2017-Oct-18 16:00N 42°21' W 071°01'1 2.4
2017-Oct-18 15:30N 42°20' W 070°59'3 6.3
2017-Oct-18 15:00N 42°22' W 071°03'  

Dump ship's entire track history